sensor_id;sensor_type;location;lat;lon;timestamp;P1;durP1;ratioP1;P2;durP2;ratioP2
35993;SDS011;22066;54.274;18.578;2023-06-22T00:00:45;9.43;;;6.25;;
35993;SDS011;22066;54.274;18.578;2023-06-22T00:03:11;11.32;;;4.97;;
35993;SDS011;22066;54.274;18.578;2023-06-22T00:05:37;9.02;;;5.70;;
35993;SDS011;22066;54.274;18.578;2023-06-22T00:08:03;9.48;;;5.20;;
35993;SDS011;22066;54.274;18.578;2023-06-22T00:10:30;11.90;;;6.03;;
35993;SDS011;22066;54.274;18.578;2023-06-22T00:12:56;8.23;;;5.25;;
35993;SDS011;22066;54.274;18.578;2023-06-22T00:15:22;11.07;;;5.93;;
35993;SDS011;22066;54.274;18.578;2023-06-22T00:17:49;8.77;;;5.47;;
35993;SDS011;22066;54.274;18.578;2023-06-22T00:20:15;9.32;;;5.35;;
35993;SDS011;22066;54.274;18.578;2023-06-22T00:22:43;12.00;;;5.38;;
35993;SDS011;22066;54.274;18.578;2023-06-22T00:25:09;11.68;;;6.15;;
35993;SDS011;22066;54.274;18.578;2023-06-22T00:27:35;16.67;;;7.43;;
35993;SDS011;22066;54.274;18.578;2023-06-22T00:30:01;16.02;;;6.63;;
35993;SDS011;22066;54.274;18.578;2023-06-22T00:32:27;12.38;;;6.57;;
35993;SDS011;22066;54.274;18.578;2023-06-22T00:34:53;11.05;;;6.00;;
35993;SDS011;22066;54.274;18.578;2023-06-22T00:37:19;11.52;;;6.28;;
35993;SDS011;22066;54.274;18.578;2023-06-22T00:39:50;10.90;;;5.57;;
35993;SDS011;22066;54.274;18.578;2023-06-22T00:42:16;12.70;;;5.53;;
35993;SDS011;22066;54.274;18.578;2023-06-22T00:44:42;11.13;;;5.80;;
35993;SDS011;22066;54.274;18.578;2023-06-22T00:47:09;14.33;;;6.17;;
35993;SDS011;22066;54.274;18.578;2023-06-22T00:49:37;10.00;;;5.30;;
35993;SDS011;22066;54.274;18.578;2023-06-22T00:52:04;13.02;;;5.65;;
35993;SDS011;22066;54.274;18.578;2023-06-22T00:54:34;8.85;;;5.65;;
35993;SDS011;22066;54.274;18.578;2023-06-22T00:57:01;11.68;;;5.93;;
35993;SDS011;22066;54.274;18.578;2023-06-22T00:59:27;9.10;;;6.05;;
35993;SDS011;22066;54.274;18.578;2023-06-22T01:01:53;25.27;;;6.38;;
35993;SDS011;22066;54.274;18.578;2023-06-22T01:04:19;12.13;;;6.75;;
35993;SDS011;22066;54.274;18.578;2023-06-22T01:06:51;9.88;;;6.18;;
35993;SDS011;22066;54.274;18.578;2023-06-22T01:09:22;10.85;;;5.32;;
35993;SDS011;22066;54.274;18.578;2023-06-22T01:11:54;14.52;;;5.95;;
35993;SDS011;22066;54.274;18.578;2023-06-22T01:14:42;10.18;;;6.13;;
35993;SDS011;22066;54.274;18.578;2023-06-22T01:17:09;9.90;;;5.95;;
35993;SDS011;22066;54.274;18.578;2023-06-22T01:19:39;9.85;;;5.85;;
35993;SDS011;22066;54.274;18.578;2023-06-22T01:22:09;9.20;;;5.65;;
35993;SDS011;22066;54.274;18.578;2023-06-22T01:27:32;13.27;;;5.45;;
35993;SDS011;22066;54.274;18.578;2023-06-22T01:29:58;12.15;;;5.53;;
35993;SDS011;22066;54.274;18.578;2023-06-22T01:32:30;9.07;;;5.75;;
35993;SDS011;22066;54.274;18.578;2023-06-22T01:34:58;11.75;;;5.93;;
35993;SDS011;22066;54.274;18.578;2023-06-22T01:37:24;11.40;;;5.65;;
35993;SDS011;22066;54.274;18.578;2023-06-22T01:39:50;13.32;;;5.25;;
35993;SDS011;22066;54.274;18.578;2023-06-22T01:42:17;10.88;;;6.18;;
35993;SDS011;22066;54.274;18.578;2023-06-22T01:44:43;11.38;;;6.20;;
35993;SDS011;22066;54.274;18.578;2023-06-22T01:47:09;9.40;;;5.95;;
35993;SDS011;22066;54.274;18.578;2023-06-22T01:49:35;10.18;;;5.97;;
35993;SDS011;22066;54.274;18.578;2023-06-22T01:52:02;10.45;;;6.03;;
35993;SDS011;22066;54.274;18.578;2023-06-22T01:54:29;12.95;;;6.65;;
35993;SDS011;22066;54.274;18.578;2023-06-22T01:56:55;10.50;;;6.43;;
35993;SDS011;22066;54.274;18.578;2023-06-22T01:59:25;10.02;;;6.32;;
35993;SDS011;22066;54.274;18.578;2023-06-22T02:02:06;9.00;;;5.63;;
35993;SDS011;22066;54.274;18.578;2023-06-22T02:04:55;11.15;;;6.47;;
35993;SDS011;22066;54.274;18.578;2023-06-22T02:07:20;13.75;;;6.70;;
35993;SDS011;22066;54.274;18.578;2023-06-22T02:09:47;10.77;;;6.35;;
35993;SDS011;22066;54.274;18.578;2023-06-22T02:12:16;12.30;;;7.10;;
35993;SDS011;22066;54.274;18.578;2023-06-22T02:14:43;12.13;;;6.82;;
35993;SDS011;22066;54.274;18.578;2023-06-22T02:17:09;14.73;;;6.47;;
35993;SDS011;22066;54.274;18.578;2023-06-22T02:19:36;12.57;;;7.18;;
35993;SDS011;22066;54.274;18.578;2023-06-22T02:22:03;10.48;;;6.35;;
35993;SDS011;22066;54.274;18.578;2023-06-22T02:24:29;13.07;;;7.13;;
35993;SDS011;22066;54.274;18.578;2023-06-22T02:26:57;13.13;;;7.45;;
35993;SDS011;22066;54.274;18.578;2023-06-22T02:29:24;11.73;;;7.35;;
35993;SDS011;22066;54.274;18.578;2023-06-22T02:31:50;17.02;;;7.53;;
35993;SDS011;22066;54.274;18.578;2023-06-22T02:34:16;11.73;;;7.05;;
35993;SDS011;22066;54.274;18.578;2023-06-22T02:36:46;13.65;;;7.25;;
35993;SDS011;22066;54.274;18.578;2023-06-22T02:39:24;11.45;;;6.80;;
35993;SDS011;22066;54.274;18.578;2023-06-22T02:41:54;14.77;;;8.10;;
35993;SDS011;22066;54.274;18.578;2023-06-22T02:44:20;12.75;;;7.95;;
35993;SDS011;22066;54.274;18.578;2023-06-22T02:46:46;14.85;;;7.75;;
35993;SDS011;22066;54.274;18.578;2023-06-22T02:49:13;14.05;;;8.00;;
35993;SDS011;22066;54.274;18.578;2023-06-22T02:51:42;12.50;;;8.05;;
35993;SDS011;22066;54.274;18.578;2023-06-22T02:54:08;15.90;;;7.43;;
35993;SDS011;22066;54.274;18.578;2023-06-22T02:56:34;13.13;;;7.82;;
35993;SDS011;22066;54.274;18.578;2023-06-22T02:59:02;13.80;;;9.10;;
35993;SDS011;22066;54.274;18.578;2023-06-22T03:01:28;12.85;;;7.65;;
35993;SDS011;22066;54.274;18.578;2023-06-22T03:03:55;13.52;;;7.93;;
35993;SDS011;22066;54.274;18.578;2023-06-22T03:06:21;15.10;;;8.88;;
35993;SDS011;22066;54.274;18.578;2023-06-22T03:08:48;19.33;;;8.75;;
35993;SDS011;22066;54.274;18.578;2023-06-22T03:11:14;14.93;;;9.07;;
35993;SDS011;22066;54.274;18.578;2023-06-22T03:13:40;18.00;;;10.35;;
35993;SDS011;22066;54.274;18.578;2023-06-22T03:16:06;13.18;;;8.20;;
35993;SDS011;22066;54.274;18.578;2023-06-22T03:18:32;15.27;;;9.25;;
35993;SDS011;22066;54.274;18.578;2023-06-22T03:20:58;15.13;;;9.52;;
35993;SDS011;22066;54.274;18.578;2023-06-22T03:23:27;18.17;;;9.50;;
35993;SDS011;22066;54.274;18.578;2023-06-22T03:25:53;18.02;;;10.43;;
35993;SDS011;22066;54.274;18.578;2023-06-22T03:28:20;17.65;;;9.35;;
35993;SDS011;22066;54.274;18.578;2023-06-22T03:30:47;14.90;;;9.20;;
35993;SDS011;22066;54.274;18.578;2023-06-22T03:33:13;18.02;;;8.85;;
35993;SDS011;22066;54.274;18.578;2023-06-22T03:35:39;14.20;;;8.88;;
35993;SDS011;22066;54.274;18.578;2023-06-22T03:38:05;14.93;;;8.05;;
35993;SDS011;22066;54.274;18.578;2023-06-22T03:40:31;11.63;;;7.68;;
35993;SDS011;22066;54.274;18.578;2023-06-22T03:42:57;13.57;;;8.45;;
35993;SDS011;22066;54.274;18.578;2023-06-22T03:45:23;14.70;;;8.25;;
35993;SDS011;22066;54.274;18.578;2023-06-22T03:47:49;13.02;;;7.65;;
35993;SDS011;22066;54.274;18.578;2023-06-22T03:50:15;10.82;;;6.65;;
35993;SDS011;22066;54.274;18.578;2023-06-22T03:52:41;18.17;;;7.90;;
35993;SDS011;22066;54.274;18.578;2023-06-22T03:55:07;13.00;;;7.30;;
35993;SDS011;22066;54.274;18.578;2023-06-22T03:57:33;14.52;;;8.15;;
35993;SDS011;22066;54.274;18.578;2023-06-22T03:59:59;21.85;;;8.75;;
35993;SDS011;22066;54.274;18.578;2023-06-22T04:02:25;13.98;;;6.68;;
35993;SDS011;22066;54.274;18.578;2023-06-22T04:04:51;11.52;;;6.72;;
35993;SDS011;22066;54.274;18.578;2023-06-22T04:07:17;12.52;;;7.47;;
35993;SDS011;22066;54.274;18.578;2023-06-22T04:09:44;12.90;;;7.40;;
35993;SDS011;22066;54.274;18.578;2023-06-22T04:12:10;13.60;;;7.47;;
35993;SDS011;22066;54.274;18.578;2023-06-22T04:14:36;12.68;;;7.47;;
35993;SDS011;22066;54.274;18.578;2023-06-22T04:17:02;11.35;;;6.32;;
35993;SDS011;22066;54.274;18.578;2023-06-22T04:19:28;15.85;;;7.68;;
35993;SDS011;22066;54.274;18.578;2023-06-22T04:21:54;15.18;;;7.22;;
35993;SDS011;22066;54.274;18.578;2023-06-22T04:24:20;13.25;;;7.43;;
35993;SDS011;22066;54.274;18.578;2023-06-22T04:26:46;15.70;;;8.38;;
35993;SDS011;22066;54.274;18.578;2023-06-22T04:29:12;12.25;;;6.65;;
35993;SDS011;22066;54.274;18.578;2023-06-22T04:31:39;11.68;;;6.72;;
35993;SDS011;22066;54.274;18.578;2023-06-22T04:34:06;12.60;;;6.97;;
35993;SDS011;22066;54.274;18.578;2023-06-22T04:36:36;10.10;;;6.68;;
35993;SDS011;22066;54.274;18.578;2023-06-22T04:39:10;12.13;;;6.90;;
35993;SDS011;22066;54.274;18.578;2023-06-22T04:41:37;11.32;;;6.10;;
35993;SDS011;22066;54.274;18.578;2023-06-22T04:44:09;13.88;;;6.75;;
35993;SDS011;22066;54.274;18.578;2023-06-22T04:46:36;9.40;;;6.65;;
35993;SDS011;22066;54.274;18.578;2023-06-22T04:49:03;12.80;;;7.60;;
35993;SDS011;22066;54.274;18.578;2023-06-22T04:51:31;12.55;;;6.43;;
35993;SDS011;22066;54.274;18.578;2023-06-22T04:53:57;13.27;;;6.97;;
35993;SDS011;22066;54.274;18.578;2023-06-22T04:56:26;14.48;;;6.10;;
35993;SDS011;22066;54.274;18.578;2023-06-22T04:58:54;11.52;;;5.93;;
35993;SDS011;22066;54.274;18.578;2023-06-22T05:01:22;9.23;;;6.03;;
35993;SDS011;22066;54.274;18.578;2023-06-22T05:03:48;18.15;;;7.03;;
35993;SDS011;22066;54.274;18.578;2023-06-22T05:06:15;10.75;;;6.07;;
35993;SDS011;22066;54.274;18.578;2023-06-22T05:08:41;11.10;;;5.75;;
35993;SDS011;22066;54.274;18.578;2023-06-22T05:11:07;11.20;;;5.90;;
35993;SDS011;22066;54.274;18.578;2023-06-22T05:13:33;11.60;;;5.57;;
35993;SDS011;22066;54.274;18.578;2023-06-22T05:15:59;10.63;;;6.10;;
35993;SDS011;22066;54.274;18.578;2023-06-22T05:18:28;15.68;;;6.03;;
35993;SDS011;22066;54.274;18.578;2023-06-22T05:20:55;10.23;;;6.35;;
35993;SDS011;22066;54.274;18.578;2023-06-22T05:23:21;13.73;;;6.03;;
35993;SDS011;22066;54.274;18.578;2023-06-22T05:25:47;14.45;;;5.25;;
35993;SDS011;22066;54.274;18.578;2023-06-22T05:28:13;11.77;;;5.05;;
35993;SDS011;22066;54.274;18.578;2023-06-22T05:30:39;11.63;;;5.20;;
35993;SDS011;22066;54.274;18.578;2023-06-22T05:33:05;9.90;;;4.90;;
35993;SDS011;22066;54.274;18.578;2023-06-22T05:35:31;9.98;;;4.80;;
35993;SDS011;22066;54.274;18.578;2023-06-22T05:37:57;11.40;;;5.32;;
35993;SDS011;22066;54.274;18.578;2023-06-22T05:40:23;7.57;;;4.05;;
35993;SDS011;22066;54.274;18.578;2023-06-22T05:42:49;17.45;;;5.60;;
35993;SDS011;22066;54.274;18.578;2023-06-22T05:45:15;12.68;;;4.85;;
35993;SDS011;22066;54.274;18.578;2023-06-22T05:47:41;11.43;;;4.40;;
35993;SDS011;22066;54.274;18.578;2023-06-22T05:50:07;11.32;;;4.35;;
35993;SDS011;22066;54.274;18.578;2023-06-22T05:52:33;9.25;;;4.30;;
35993;SDS011;22066;54.274;18.578;2023-06-22T05:55:01;8.38;;;4.10;;
35993;SDS011;22066;54.274;18.578;2023-06-22T05:57:28;10.00;;;3.90;;
35993;SDS011;22066;54.274;18.578;2023-06-22T05:59:54;9.90;;;3.88;;
35993;SDS011;22066;54.274;18.578;2023-06-22T06:02:20;7.75;;;3.55;;
35993;SDS011;22066;54.274;18.578;2023-06-22T06:04:46;8.00;;;3.53;;
35993;SDS011;22066;54.274;18.578;2023-06-22T06:07:12;7.25;;;4.07;;
35993;SDS011;22066;54.274;18.578;2023-06-22T06:09:38;8.10;;;4.45;;
35993;SDS011;22066;54.274;18.578;2023-06-22T06:12:04;10.90;;;3.90;;
35993;SDS011;22066;54.274;18.578;2023-06-22T06:14:30;9.70;;;3.88;;
35993;SDS011;22066;54.274;18.578;2023-06-22T06:16:56;8.52;;;3.85;;
35993;SDS011;22066;54.274;18.578;2023-06-22T06:19:22;12.98;;;4.13;;
35993;SDS011;22066;54.274;18.578;2023-06-22T06:21:48;8.85;;;3.90;;
35993;SDS011;22066;54.274;18.578;2023-06-22T06:24:15;8.95;;;4.20;;
35993;SDS011;22066;54.274;18.578;2023-06-22T06:26:41;7.93;;;3.85;;
35993;SDS011;22066;54.274;18.578;2023-06-22T06:29:07;7.32;;;3.65;;
35993;SDS011;22066;54.274;18.578;2023-06-22T06:31:33;6.90;;;3.15;;
35993;SDS011;22066;54.274;18.578;2023-06-22T06:33:59;6.15;;;2.67;;
35993;SDS011;22066;54.274;18.578;2023-06-22T06:36:25;5.90;;;3.00;;
35993;SDS011;22066;54.274;18.578;2023-06-22T06:38:51;11.68;;;4.22;;
35993;SDS011;22066;54.274;18.578;2023-06-22T06:41:17;5.60;;;3.13;;
35993;SDS011;22066;54.274;18.578;2023-06-22T06:43:43;5.70;;;2.58;;
35993;SDS011;22066;54.274;18.578;2023-06-22T06:46:09;8.48;;;2.83;;
35993;SDS011;22066;54.274;18.578;2023-06-22T06:48:35;8.27;;;2.80;;
35993;SDS011;22066;54.274;18.578;2023-06-22T06:51:02;7.22;;;2.78;;
35993;SDS011;22066;54.274;18.578;2023-06-22T06:53:28;6.35;;;2.80;;
35993;SDS011;22066;54.274;18.578;2023-06-22T06:55:54;5.60;;;2.70;;
35993;SDS011;22066;54.274;18.578;2023-06-22T06:58:20;5.47;;;2.97;;
35993;SDS011;22066;54.274;18.578;2023-06-22T07:00:48;4.18;;;2.47;;
35993;SDS011;22066;54.274;18.578;2023-06-22T07:03:14;8.38;;;3.58;;
35993;SDS011;22066;54.274;18.578;2023-06-22T07:05:40;9.98;;;2.70;;
35993;SDS011;22066;54.274;18.578;2023-06-22T07:08:06;4.93;;;2.53;;
35993;SDS011;22066;54.274;18.578;2023-06-22T07:10:32;5.50;;;2.20;;
35993;SDS011;22066;54.274;18.578;2023-06-22T07:12:58;6.28;;;2.83;;
35993;SDS011;22066;54.274;18.578;2023-06-22T07:15:24;7.20;;;2.50;;
35993;SDS011;22066;54.274;18.578;2023-06-22T07:17:50;11.30;;;3.50;;
35993;SDS011;22066;54.274;18.578;2023-06-22T07:20:16;7.60;;;3.22;;
35993;SDS011;22066;54.274;18.578;2023-06-22T07:25:10;6.35;;;2.40;;
35993;SDS011;22066;54.274;18.578;2023-06-22T07:27:39;11.93;;;2.75;;
35993;SDS011;22066;54.274;18.578;2023-06-22T07:30:08;4.47;;;2.13;;
35993;SDS011;22066;54.274;18.578;2023-06-22T07:32:34;4.23;;;2.13;;
35993;SDS011;22066;54.274;18.578;2023-06-22T07:35:00;11.80;;;2.83;;
35993;SDS011;22066;54.274;18.578;2023-06-22T07:37:27;5.20;;;2.40;;
35993;SDS011;22066;54.274;18.578;2023-06-22T07:39:54;8.68;;;2.83;;
35993;SDS011;22066;54.274;18.578;2023-06-22T07:42:25;14.60;;;2.80;;
35993;SDS011;22066;54.274;18.578;2023-06-22T07:44:52;6.20;;;2.28;;
35993;SDS011;22066;54.274;18.578;2023-06-22T07:47:18;8.95;;;2.80;;
35993;SDS011;22066;54.274;18.578;2023-06-22T07:49:44;14.65;;;3.25;;
35993;SDS011;22066;54.274;18.578;2023-06-22T07:52:10;6.28;;;2.20;;
35993;SDS011;22066;54.274;18.578;2023-06-22T07:54:37;6.85;;;2.65;;
35993;SDS011;22066;54.274;18.578;2023-06-22T07:57:03;4.60;;;2.15;;
35993;SDS011;22066;54.274;18.578;2023-06-22T07:59:30;4.68;;;1.95;;
35993;SDS011;22066;54.274;18.578;2023-06-22T08:01:56;6.07;;;2.00;;
35993;SDS011;22066;54.274;18.578;2023-06-22T08:04:22;4.93;;;2.35;;
35993;SDS011;22066;54.274;18.578;2023-06-22T08:06:48;6.22;;;2.42;;
35993;SDS011;22066;54.274;18.578;2023-06-22T08:09:14;7.97;;;2.72;;
35993;SDS011;22066;54.274;18.578;2023-06-22T08:11:40;11.63;;;3.00;;
35993;SDS011;22066;54.274;18.578;2023-06-22T08:14:06;7.03;;;2.22;;
35993;SDS011;22066;54.274;18.578;2023-06-22T08:16:32;5.90;;;2.22;;
35993;SDS011;22066;54.274;18.578;2023-06-22T08:18:58;5.53;;;2.65;;
35993;SDS011;22066;54.274;18.578;2023-06-22T08:21:24;8.32;;;2.38;;
35993;SDS011;22066;54.274;18.578;2023-06-22T08:23:50;5.22;;;2.40;;
35993;SDS011;22066;54.274;18.578;2023-06-22T08:26:16;8.57;;;3.05;;
35993;SDS011;22066;54.274;18.578;2023-06-22T08:28:42;5.68;;;2.13;;
35993;SDS011;22066;54.274;18.578;2023-06-22T08:31:08;4.88;;;2.40;;
35993;SDS011;22066;54.274;18.578;2023-06-22T08:33:37;8.20;;;3.17;;
35993;SDS011;22066;54.274;18.578;2023-06-22T08:36:03;4.22;;;1.98;;
35993;SDS011;22066;54.274;18.578;2023-06-22T08:38:31;9.05;;;2.33;;
35993;SDS011;22066;54.274;18.578;2023-06-22T08:40:57;7.25;;;2.10;;
35993;SDS011;22066;54.274;18.578;2023-06-22T08:43:23;6.13;;;2.50;;
35993;SDS011;22066;54.274;18.578;2023-06-22T08:45:49;4.75;;;2.30;;
35993;SDS011;22066;54.274;18.578;2023-06-22T08:48:15;7.18;;;2.33;;
35993;SDS011;22066;54.274;18.578;2023-06-22T08:50:41;7.60;;;3.03;;
35993;SDS011;22066;54.274;18.578;2023-06-22T08:53:07;7.82;;;2.50;;
35993;SDS011;22066;54.274;18.578;2023-06-22T08:55:33;6.70;;;2.20;;
35993;SDS011;22066;54.274;18.578;2023-06-22T08:57:59;4.55;;;2.35;;
35993;SDS011;22066;54.274;18.578;2023-06-22T09:00:26;5.67;;;1.70;;
35993;SDS011;22066;54.274;18.578;2023-06-22T09:02:53;4.45;;;2.03;;
35993;SDS011;22066;54.274;18.578;2023-06-22T09:05:24;6.57;;;2.40;;
35993;SDS011;22066;54.274;18.578;2023-06-22T09:07:53;5.30;;;2.22;;
35993;SDS011;22066;54.274;18.578;2023-06-22T09:10:23;5.03;;;2.38;;
35993;SDS011;22066;54.274;18.578;2023-06-22T09:12:49;5.97;;;2.57;;
35993;SDS011;22066;54.274;18.578;2023-06-22T09:15:15;5.22;;;2.03;;
35993;SDS011;22066;54.274;18.578;2023-06-22T09:17:42;7.03;;;2.58;;
35993;SDS011;22066;54.274;18.578;2023-06-22T09:20:08;10.82;;;2.47;;
35993;SDS011;22066;54.274;18.578;2023-06-22T09:22:36;3.30;;;1.73;;
35993;SDS011;22066;54.274;18.578;2023-06-22T09:25:02;6.00;;;2.13;;
35993;SDS011;22066;54.274;18.578;2023-06-22T09:27:28;6.40;;;2.25;;
35993;SDS011;22066;54.274;18.578;2023-06-22T09:29:54;4.77;;;1.80;;
35993;SDS011;22066;54.274;18.578;2023-06-22T09:32:20;6.43;;;1.88;;
35993;SDS011;22066;54.274;18.578;2023-06-22T09:34:46;7.32;;;1.83;;
35993;SDS011;22066;54.274;18.578;2023-06-22T09:37:12;8.05;;;1.98;;
35993;SDS011;22066;54.274;18.578;2023-06-22T09:39:38;4.20;;;2.13;;
35993;SDS011;22066;54.274;18.578;2023-06-22T09:42:05;7.70;;;2.67;;
35993;SDS011;22066;54.274;18.578;2023-06-22T09:44:31;9.35;;;3.45;;
35993;SDS011;22066;54.274;18.578;2023-06-22T09:46:57;5.50;;;2.15;;
35993;SDS011;22066;54.274;18.578;2023-06-22T09:49:23;3.93;;;2.30;;
35993;SDS011;22066;54.274;18.578;2023-06-22T09:51:49;6.63;;;2.53;;
35993;SDS011;22066;54.274;18.578;2023-06-22T09:54:16;7.43;;;2.30;;
35993;SDS011;22066;54.274;18.578;2023-06-22T09:56:42;8.87;;;2.37;;
35993;SDS011;22066;54.274;18.578;2023-06-22T09:59:08;5.77;;;2.60;;
35993;SDS011;22066;54.274;18.578;2023-06-22T10:01:34;5.07;;;1.93;;
35993;SDS011;22066;54.274;18.578;2023-06-22T10:04:00;7.15;;;2.47;;
35993;SDS011;22066;54.274;18.578;2023-06-22T10:06:26;9.18;;;2.20;;
35993;SDS011;22066;54.274;18.578;2023-06-22T10:08:52;6.70;;;2.43;;
35993;SDS011;22066;54.274;18.578;2023-06-22T10:11:18;4.70;;;2.05;;
35993;SDS011;22066;54.274;18.578;2023-06-22T10:13:44;6.07;;;2.10;;
35993;SDS011;22066;54.274;18.578;2023-06-22T10:16:10;6.82;;;2.47;;
35993;SDS011;22066;54.274;18.578;2023-06-22T10:18:36;4.43;;;2.10;;
35993;SDS011;22066;54.274;18.578;2023-06-22T10:21:02;3.88;;;2.03;;
35993;SDS011;22066;54.274;18.578;2023-06-22T10:23:28;3.47;;;1.90;;
35993;SDS011;22066;54.274;18.578;2023-06-22T10:25:54;4.68;;;2.17;;
35993;SDS011;22066;54.274;18.578;2023-06-22T10:28:23;6.15;;;2.05;;
35993;SDS011;22066;54.274;18.578;2023-06-22T10:30:49;6.32;;;2.30;;
35993;SDS011;22066;54.274;18.578;2023-06-22T10:33:15;8.60;;;2.33;;
35993;SDS011;22066;54.274;18.578;2023-06-22T10:35:41;5.90;;;2.45;;
35993;SDS011;22066;54.274;18.578;2023-06-22T10:38:07;7.70;;;2.10;;
35993;SDS011;22066;54.274;18.578;2023-06-22T10:40:33;7.33;;;2.47;;
35993;SDS011;22066;54.274;18.578;2023-06-22T10:42:59;4.63;;;2.00;;
35993;SDS011;22066;54.274;18.578;2023-06-22T10:45:25;5.05;;;2.10;;
35993;SDS011;22066;54.274;18.578;2023-06-22T10:47:52;5.25;;;2.38;;
35993;SDS011;22066;54.274;18.578;2023-06-22T10:50:18;6.20;;;2.58;;
35993;SDS011;22066;54.274;18.578;2023-06-22T10:52:45;7.50;;;2.78;;
35993;SDS011;22066;54.274;18.578;2023-06-22T10:55:11;6.28;;;2.45;;
35993;SDS011;22066;54.274;18.578;2023-06-22T10:57:37;7.40;;;2.47;;
35993;SDS011;22066;54.274;18.578;2023-06-22T11:00:07;5.45;;;1.80;;
35993;SDS011;22066;54.274;18.578;2023-06-22T11:02:34;6.53;;;2.38;;
35993;SDS011;22066;54.274;18.578;2023-06-22T11:05:00;9.00;;;2.15;;
35993;SDS011;22066;54.274;18.578;2023-06-22T11:07:26;5.38;;;2.00;;
35993;SDS011;22066;54.274;18.578;2023-06-22T11:09:55;5.38;;;2.45;;
35993;SDS011;22066;54.274;18.578;2023-06-22T11:12:21;3.90;;;2.05;;
35993;SDS011;22066;54.274;18.578;2023-06-22T11:14:47;5.15;;;2.58;;
35993;SDS011;22066;54.274;18.578;2023-06-22T11:17:16;9.07;;;3.13;;
35993;SDS011;22066;54.274;18.578;2023-06-22T11:19:43;6.55;;;2.15;;
35993;SDS011;22066;54.274;18.578;2023-06-22T11:22:09;7.35;;;2.33;;
35993;SDS011;22066;54.274;18.578;2023-06-22T11:24:35;9.38;;;2.30;;
35993;SDS011;22066;54.274;18.578;2023-06-22T11:27:01;5.05;;;2.30;;
35993;SDS011;22066;54.274;18.578;2023-06-22T11:29:27;5.15;;;2.55;;
35993;SDS011;22066;54.274;18.578;2023-06-22T11:31:53;4.15;;;2.40;;
35993;SDS011;22066;54.274;18.578;2023-06-22T11:34:19;9.32;;;2.00;;
35993;SDS011;22066;54.274;18.578;2023-06-22T11:36:45;5.75;;;2.03;;
35993;SDS011;22066;54.274;18.578;2023-06-22T11:41:40;4.55;;;2.20;;
35993;SDS011;22066;54.274;18.578;2023-06-22T11:44:06;5.50;;;2.50;;
35993;SDS011;22066;54.274;18.578;2023-06-22T11:46:32;7.70;;;2.22;;
35993;SDS011;22066;54.274;18.578;2023-06-22T11:49:00;4.93;;;2.63;;
35993;SDS011;22066;54.274;18.578;2023-06-22T11:51:26;4.32;;;2.05;;
35993;SDS011;22066;54.274;18.578;2023-06-22T11:53:52;6.15;;;2.13;;
35993;SDS011;22066;54.274;18.578;2023-06-22T11:56:18;6.10;;;2.10;;
35993;SDS011;22066;54.274;18.578;2023-06-22T11:58:44;3.50;;;1.90;;
35993;SDS011;22066;54.274;18.578;2023-06-22T12:01:10;3.55;;;1.70;;
35993;SDS011;22066;54.274;18.578;2023-06-22T12:03:39;5.85;;;1.80;;
35993;SDS011;22066;54.274;18.578;2023-06-22T12:06:06;5.38;;;2.47;;
35993;SDS011;22066;54.274;18.578;2023-06-22T12:08:32;5.13;;;2.25;;
35993;SDS011;22066;54.274;18.578;2023-06-22T12:10:58;4.35;;;2.30;;
35993;SDS011;22066;54.274;18.578;2023-06-22T12:13:24;8.07;;;2.10;;
35993;SDS011;22066;54.274;18.578;2023-06-22T12:15:50;4.15;;;1.92;;
35993;SDS011;22066;54.274;18.578;2023-06-22T12:18:17;8.40;;;2.00;;
35993;SDS011;22066;54.274;18.578;2023-06-22T12:20:45;4.75;;;1.70;;
35993;SDS011;22066;54.274;18.578;2023-06-22T12:23:12;3.33;;;1.58;;
35993;SDS011;22066;54.274;18.578;2023-06-22T12:25:38;2.70;;;1.40;;
35993;SDS011;22066;54.274;18.578;2023-06-22T12:28:04;3.95;;;2.03;;
35993;SDS011;22066;54.274;18.578;2023-06-22T12:30:32;6.10;;;2.00;;
35993;SDS011;22066;54.274;18.578;2023-06-22T12:35:24;6.75;;;1.95;;
35993;SDS011;22066;54.274;18.578;2023-06-22T12:37:50;6.43;;;2.05;;
35993;SDS011;22066;54.274;18.578;2023-06-22T12:40:16;6.25;;;1.80;;
35993;SDS011;22066;54.274;18.578;2023-06-22T12:42:42;10.07;;;2.08;;
35993;SDS011;22066;54.274;18.578;2023-06-22T12:45:08;3.72;;;2.00;;
35993;SDS011;22066;54.274;18.578;2023-06-22T12:47:34;9.52;;;2.92;;
35993;SDS011;22066;54.274;18.578;2023-06-22T12:50:00;7.65;;;3.20;;
35993;SDS011;22066;54.274;18.578;2023-06-22T12:52:27;18.38;;;3.00;;
35993;SDS011;22066;54.274;18.578;2023-06-22T12:54:53;5.72;;;2.75;;
35993;SDS011;22066;54.274;18.578;2023-06-22T12:57:19;8.57;;;3.60;;
35993;SDS011;22066;54.274;18.578;2023-06-22T12:59:45;7.50;;;3.13;;
35993;SDS011;22066;54.274;18.578;2023-06-22T13:02:11;7.03;;;2.60;;
35993;SDS011;22066;54.274;18.578;2023-06-22T13:04:38;5.75;;;2.88;;
35993;SDS011;22066;54.274;18.578;2023-06-22T13:07:04;6.88;;;2.85;;
35993;SDS011;22066;54.274;18.578;2023-06-22T13:09:30;6.68;;;3.05;;
35993;SDS011;22066;54.274;18.578;2023-06-22T13:11:56;9.73;;;3.17;;
35993;SDS011;22066;54.274;18.578;2023-06-22T13:14:22;7.88;;;3.03;;
35993;SDS011;22066;54.274;18.578;2023-06-22T13:16:49;8.73;;;3.88;;
35993;SDS011;22066;54.274;18.578;2023-06-22T13:19:15;7.18;;;2.88;;
35993;SDS011;22066;54.274;18.578;2023-06-22T13:21:41;9.48;;;2.63;;
35993;SDS011;22066;54.274;18.578;2023-06-22T13:24:07;8.07;;;3.40;;
35993;SDS011;22066;54.274;18.578;2023-06-22T13:26:33;6.47;;;3.20;;
35993;SDS011;22066;54.274;18.578;2023-06-22T13:28:59;9.43;;;3.97;;
35993;SDS011;22066;54.274;18.578;2023-06-22T13:31:25;9.35;;;3.03;;
35993;SDS011;22066;54.274;18.578;2023-06-22T13:33:51;5.47;;;2.58;;
35993;SDS011;22066;54.274;18.578;2023-06-22T13:36:18;11.38;;;3.25;;
35993;SDS011;22066;54.274;18.578;2023-06-22T13:38:44;7.80;;;2.73;;
35993;SDS011;22066;54.274;18.578;2023-06-22T13:41:10;5.75;;;2.75;;
35993;SDS011;22066;54.274;18.578;2023-06-22T13:43:36;6.47;;;2.70;;
35993;SDS011;22066;54.274;18.578;2023-06-22T13:46:02;7.13;;;3.28;;
35993;SDS011;22066;54.274;18.578;2023-06-22T13:48:28;8.23;;;2.75;;
35993;SDS011;22066;54.274;18.578;2023-06-22T13:50:57;7.18;;;2.60;;
35993;SDS011;22066;54.274;18.578;2023-06-22T13:53:24;5.93;;;2.45;;
35993;SDS011;22066;54.274;18.578;2023-06-22T13:58:17;7.00;;;2.67;;
35993;SDS011;22066;54.274;18.578;2023-06-22T14:00:44;10.65;;;3.42;;
35993;SDS011;22066;54.274;18.578;2023-06-22T14:03:10;6.85;;;2.35;;
35993;SDS011;22066;54.274;18.578;2023-06-22T14:05:37;10.18;;;2.42;;
35993;SDS011;22066;54.274;18.578;2023-06-22T14:08:03;6.82;;;2.53;;
35993;SDS011;22066;54.274;18.578;2023-06-22T14:10:29;6.70;;;2.65;;
35993;SDS011;22066;54.274;18.578;2023-06-22T14:12:55;7.80;;;2.75;;
35993;SDS011;22066;54.274;18.578;2023-06-22T14:15:21;9.27;;;2.80;;
35993;SDS011;22066;54.274;18.578;2023-06-22T14:17:47;7.03;;;3.42;;
35993;SDS011;22066;54.274;18.578;2023-06-22T14:20:13;9.07;;;2.65;;
35993;SDS011;22066;54.274;18.578;2023-06-22T14:22:39;6.15;;;3.00;;
35993;SDS011;22066;54.274;18.578;2023-06-22T14:25:05;5.93;;;2.50;;
35993;SDS011;22066;54.274;18.578;2023-06-22T14:27:31;5.03;;;2.42;;
35993;SDS011;22066;54.274;18.578;2023-06-22T14:29:57;6.38;;;2.80;;
35993;SDS011;22066;54.274;18.578;2023-06-22T14:32:23;4.78;;;2.20;;
35993;SDS011;22066;54.274;18.578;2023-06-22T14:34:50;8.32;;;3.72;;
35993;SDS011;22066;54.274;18.578;2023-06-22T14:37:16;6.15;;;2.13;;